createdAt,value
2023-01-06T00:01:40.515Z,5.18
2023-01-06T00:04:10.025Z,5.18
2023-01-06T00:06:39.202Z,5.18
2023-01-06T00:09:08.601Z,5.35
2023-01-06T00:11:38.442Z,5.55
2023-01-06T00:14:07.666Z,5.46
2023-01-06T00:16:38.254Z,5.60
2023-01-06T00:19:07.484Z,5.59
2023-01-06T00:21:36.658Z,5.43
2023-01-06T00:24:05.990Z,5.19
2023-01-06T00:26:35.116Z,5.09
2023-01-06T00:29:06.639Z,5.05
2023-01-06T00:31:38.430Z,5.30
2023-01-06T00:34:07.479Z,5.04
2023-01-06T00:36:36.687Z,5.02
2023-01-06T00:39:05.847Z,4.78
2023-01-06T00:41:52.305Z,4.59
2023-01-06T00:44:21.460Z,4.37
2023-01-06T00:46:52.306Z,4.25
2023-01-06T00:49:21.586Z,4.11
2023-01-06T00:51:50.848Z,3.96
2023-01-06T00:54:20.469Z,3.75
2023-01-06T00:56:51.687Z,3.73
2023-01-06T00:59:22.721Z,3.60
2023-01-06T01:01:56.488Z,3.52
2023-01-06T01:04:27.468Z,3.45
2023-01-06T01:06:56.799Z,3.41
2023-01-06T01:09:29.619Z,3.26
2023-01-06T01:12:12.931Z,3.24
2023-01-06T01:14:47.393Z,3.15
2023-01-06T01:17:20.453Z,3.06
2023-01-06T01:19:51.786Z,2.98
2023-01-06T01:22:21.258Z,2.87
2023-01-06T01:24:50.570Z,2.69
2023-01-06T01:27:21.042Z,2.66
2023-01-06T01:29:50.240Z,2.60
2023-01-06T01:32:21.012Z,2.54
2023-01-06T01:34:50.180Z,2.49
2023-01-06T01:37:19.489Z,2.46
2023-01-06T01:39:49.246Z,2.42
2023-01-06T01:42:21.977Z,2.40
2023-01-06T01:45:03.220Z,2.45
2023-01-06T01:47:47.354Z,2.39
2023-01-06T01:50:27.181Z,2.39
2023-01-06T01:53:02.221Z,2.46
2023-01-06T01:55:33.336Z,2.51
2023-01-06T01:58:07.771Z,2.54
2023-01-06T02:00:37.968Z,2.51
2023-01-06T02:03:09.002Z,2.59
2023-01-06T02:05:42.168Z,2.60
2023-01-06T02:08:24.464Z,2.57
2023-01-06T02:10:53.648Z,2.57
2023-01-06T02:13:22.958Z,2.62
2023-01-06T02:16:03.038Z,2.59
2023-01-06T02:18:49.147Z,2.60
2023-01-06T02:21:49.179Z,2.61
2023-01-06T02:25:11.739Z,2.66
2023-01-06T02:28:32.561Z,2.70
2023-01-06T02:31:51.239Z,2.63
2023-01-06T02:34:30.416Z,2.65
2023-01-06T02:37:09.941Z,2.64
2023-01-06T02:39:51.726Z,2.61
2023-01-06T02:42:31.566Z,2.56
2023-01-06T02:45:10.445Z,2.43
2023-01-06T02:47:53.982Z,2.35
2023-01-06T02:50:32.252Z,2.37
2023-01-06T02:53:12.618Z,2.32
2023-01-06T02:55:48.023Z,2.40
2023-01-06T02:58:27.767Z,2.48
2023-01-06T03:01:02.368Z,2.56
2023-01-06T03:03:37.530Z,2.74
2023-01-06T03:06:10.893Z,2.78
2023-01-06T03:08:41.130Z,2.75
2023-01-06T03:11:10.544Z,3.04
2023-01-06T03:13:46.348Z,3.00
2023-01-06T03:16:17.235Z,2.76
2023-01-06T03:18:51.380Z,2.74
2023-01-06T03:21:28.045Z,2.83
2023-01-06T03:23:57.516Z,2.90
2023-01-06T03:26:27.493Z,2.88
2023-01-06T03:28:57.177Z,2.97
2023-01-06T03:31:36.323Z,2.79
2023-01-06T03:34:18.581Z,2.97
2023-01-06T03:36:54.934Z,2.95
2023-01-06T03:39:35.558Z,2.83
2023-01-06T03:42:45.753Z,2.68
2023-01-06T03:45:40.803Z,2.68
2023-01-06T03:48:20.456Z,2.65
2023-01-06T03:50:54.575Z,2.63
2023-01-06T03:53:34.424Z,2.62
2023-01-06T03:56:16.535Z,2.53
2023-01-06T03:58:49.955Z,2.46
2023-01-06T04:01:20.133Z,2.34
2023-01-06T04:03:52.814Z,2.24
2023-01-06T04:06:24.243Z,2.13
2023-01-06T04:08:54.216Z,2.08
2023-01-06T04:11:40.809Z,2.06
2023-01-06T04:14:12.026Z,2.08
2023-01-06T04:16:41.296Z,2.14
2023-01-06T04:19:11.433Z,2.10
2023-01-06T04:21:42.073Z,2.09
2023-01-06T04:24:12.506Z,2.01
2023-01-06T04:26:41.697Z,1.96
2023-01-06T04:29:11.055Z,2.38
2023-01-06T04:31:40.978Z,2.39
2023-01-06T04:34:10.332Z,2.54
2023-01-06T04:36:39.437Z,2.27
2023-01-06T04:39:10.534Z,2.39
2023-01-06T04:41:39.647Z,2.44
2023-01-06T04:44:08.797Z,2.38
2023-01-06T04:46:38.076Z,2.33
2023-01-06T04:49:07.377Z,2.32
2023-01-06T04:51:36.846Z,2.25
2023-01-06T04:54:06.268Z,2.24
2023-01-06T04:56:36.741Z,2.46
2023-01-06T04:59:06.665Z,2.48
2023-01-06T05:01:36.435Z,2.43
2023-01-06T05:04:07.188Z,2.35
2023-01-06T05:06:36.748Z,2.28
2023-01-06T05:09:06.044Z,2.22
2023-01-06T05:11:36.647Z,2.12
2023-01-06T05:14:06.291Z,2.13
2023-01-06T05:16:38.347Z,2.12
2023-01-06T05:19:07.496Z,2.12
2023-01-06T05:21:36.635Z,2.14
2023-01-06T05:24:06.541Z,2.56
2023-01-06T05:26:37.090Z,2.67
2023-01-06T05:29:06.193Z,2.60
2023-01-06T05:31:35.356Z,2.71
2023-01-06T05:34:04.458Z,2.50
2023-01-06T05:36:33.891Z,2.45
2023-01-06T05:39:03.275Z,2.56
2023-01-06T05:41:32.336Z,2.48
2023-01-06T05:44:02.862Z,2.38
2023-01-06T05:46:32.140Z,2.24
2023-01-06T05:49:01.368Z,2.22
2023-01-06T05:51:31.114Z,2.27
2023-01-06T05:54:00.201Z,2.20
2023-01-06T05:56:29.364Z,2.37
2023-01-06T05:58:58.724Z,2.58
2023-01-06T06:01:32.397Z,2.47
2023-01-06T06:04:01.722Z,2.29
2023-01-06T06:06:31.138Z,2.28
2023-01-06T06:09:00.658Z,2.34
2023-01-06T06:11:29.842Z,2.27
2023-01-06T06:14:00.483Z,2.21
2023-01-06T06:16:31.238Z,2.04
2023-01-06T06:19:00.741Z,2.04
2023-01-06T06:21:32.091Z,2.07
2023-01-06T06:24:01.842Z,2.02
2023-01-06T06:26:33.942Z,2.01
2023-01-06T06:29:03.225Z,1.96
2023-01-06T06:31:34.139Z,1.81
2023-01-06T06:34:04.912Z,1.74
2023-01-06T06:36:34.368Z,1.83
2023-01-06T06:39:03.554Z,1.62
2023-01-06T06:41:32.770Z,1.59
2023-01-06T06:44:02.078Z,1.61
2023-01-06T06:46:31.124Z,1.64
2023-01-06T06:49:01.678Z,1.67
2023-01-06T06:51:31.757Z,1.73
2023-01-06T06:54:00.843Z,1.69
2023-01-06T06:56:30.005Z,1.92
2023-01-06T06:58:59.102Z,2.05
2023-01-06T07:01:28.405Z,2.21
2023-01-06T07:03:57.535Z,2.28
2023-01-06T07:06:28.976Z,2.29
2023-01-06T07:08:58.708Z,2.31
2023-01-06T07:11:27.888Z,2.43
2023-01-06T07:13:57.137Z,2.52
2023-01-06T07:16:26.812Z,2.58
2023-01-06T07:18:56.086Z,2.71
2023-01-06T07:21:25.145Z,2.73
2023-01-06T07:23:55.679Z,2.84
2023-01-06T07:26:24.806Z,2.95
2023-01-06T07:28:53.790Z,3.12
2023-01-06T07:31:22.944Z,3.25
2023-01-06T07:33:52.064Z,3.31
2023-01-06T07:36:21.173Z,3.37
2023-01-06T07:38:50.286Z,3.35
2023-01-06T07:41:20.747Z,3.34
2023-01-06T07:43:50.100Z,3.45
2023-01-06T07:46:19.280Z,3.49
2023-01-06T07:48:48.524Z,3.66
2023-01-06T07:51:17.741Z,3.85
2023-01-06T07:53:47.148Z,3.90
2023-01-06T07:56:16.276Z,3.96
2023-01-06T07:58:46.926Z,4.12
2023-01-06T08:01:16.409Z,4.31
2023-01-06T08:03:45.526Z,4.51
2023-01-06T08:06:15.299Z,4.72
2023-01-06T08:08:44.497Z,4.94
2023-01-06T08:11:14.456Z,5.09
2023-01-06T08:13:43.678Z,5.25
2023-01-06T08:16:15.179Z,5.32
2023-01-06T08:18:44.284Z,5.41
2023-01-06T08:21:13.456Z,5.24
2023-01-06T08:23:42.754Z,5.26
2023-01-06T08:26:14.648Z,5.36
2023-01-06T08:28:45.648Z,5.59
2023-01-06T08:31:21.242Z,5.84
2023-01-06T08:33:51.877Z,5.99
2023-01-06T08:36:24.473Z,5.91
2023-01-06T08:38:53.950Z,5.84
2023-01-06T08:41:23.186Z,5.82
2023-01-06T08:43:52.509Z,5.88
2023-01-06T08:46:23.240Z,5.93
2023-01-06T08:48:52.480Z,5.93
2023-01-06T08:51:23.850Z,5.94
2023-01-06T08:53:54.077Z,5.95
2023-01-06T08:56:26.339Z,5.98
2023-01-06T08:58:58.291Z,5.95
2023-01-06T09:01:32.525Z,6.02
2023-01-06T09:04:05.210Z,6.12
2023-01-06T09:06:35.512Z,6.32
2023-01-06T09:09:06.103Z,6.35
2023-01-06T09:11:35.486Z,6.44
2023-01-06T09:14:04.728Z,6.60
2023-01-06T09:16:35.178Z,6.75
2023-01-06T09:19:04.318Z,6.84
2023-01-06T09:21:33.494Z,6.85
2023-01-06T09:24:02.602Z,7.15
2023-01-06T09:26:31.864Z,7.41
2023-01-06T09:29:01.086Z,7.49
2023-01-06T09:31:30.299Z,7.55
2023-01-06T09:34:00.854Z,7.81
2023-01-06T09:36:30.204Z,7.90
2023-01-06T09:38:59.274Z,8.05
2023-01-06T09:42:05.921Z,8.16
2023-01-06T09:44:43.467Z,8.26
2023-01-06T09:47:15.245Z,8.45
2023-01-06T09:49:50.942Z,8.51
2023-01-06T09:52:33.223Z,8.71
2023-01-06T09:55:08.168Z,8.79
2023-01-06T09:57:42.069Z,8.91
2023-01-06T10:00:27.471Z,8.93
2023-01-06T10:02:58.291Z,9.04
2023-01-06T10:05:41.415Z,9.11
2023-01-06T10:08:21.491Z,9.17
2023-01-06T10:11:05.565Z,9.18
2023-01-06T10:13:54.032Z,9.24
2023-01-06T10:16:36.213Z,9.36
2023-01-06T10:19:20.817Z,9.43
2023-01-06T10:22:01.375Z,9.51
2023-01-06T10:24:43.729Z,9.70
2023-01-06T10:27:26.108Z,10.00
2023-01-06T10:29:57.523Z,10.13
2023-01-06T10:32:32.628Z,10.12
2023-01-06T10:35:02.999Z,10.17
2023-01-06T10:37:42.478Z,10.26
2023-01-06T10:40:22.440Z,10.39
2023-01-06T10:42:57.532Z,10.62
2023-01-06T10:45:33.456Z,10.60
2023-01-06T10:48:04.288Z,10.65
2023-01-06T10:50:35.627Z,10.68
2023-01-06T10:53:07.138Z,10.82
2023-01-06T10:55:48.488Z,10.90
2023-01-06T10:58:36.838Z,11.09
2023-01-06T11:01:12.179Z,11.19
2023-01-06T11:03:42.924Z,11.33
2023-01-06T11:06:19.907Z,11.46
2023-01-06T11:08:50.821Z,11.62
2023-01-06T11:11:29.415Z,11.79
2023-01-06T11:14:03.507Z,11.88
2023-01-06T11:16:36.957Z,11.99
2023-01-06T11:19:09.787Z,12.05
2023-01-06T11:21:42.430Z,12.14
2023-01-06T11:24:20.501Z,12.15
2023-01-06T11:26:54.588Z,12.10
2023-01-06T11:29:30.864Z,12.10
2023-01-06T11:32:06.759Z,12.16
2023-01-06T11:34:36.235Z,12.31
2023-01-06T11:37:06.248Z,12.47
2023-01-06T11:39:38.566Z,12.52
2023-01-06T11:42:14.405Z,12.60
2023-01-06T11:44:44.693Z,12.66
2023-01-06T11:47:18.098Z,12.72
2023-01-06T11:49:51.355Z,12.77
2023-01-06T11:52:27.182Z,12.83
2023-01-06T11:55:20.067Z,12.90
2023-01-06T11:57:58.394Z,13.06
2023-01-06T12:00:46.149Z,13.19
2023-01-06T12:03:24.638Z,13.29
2023-01-06T12:06:00.306Z,13.31
2023-01-06T12:08:36.247Z,13.42
2023-01-06T12:11:15.066Z,13.57
2023-01-06T12:14:07.963Z,13.70
2023-01-06T12:16:40.806Z,13.70
2023-01-06T12:19:16.074Z,13.85
2023-01-06T12:21:45.268Z,13.96
2023-01-06T12:24:20.651Z,13.90
2023-01-06T12:26:53.007Z,13.96
2023-01-06T12:29:23.648Z,14.11
2023-01-06T12:32:03.782Z,14.21
2023-01-06T12:34:38.309Z,14.45
2023-01-06T12:37:21.851Z,14.81
2023-01-06T12:40:01.016Z,14.70
2023-01-06T12:42:39.030Z,14.67
2023-01-06T12:45:16.619Z,14.91
2023-01-06T12:47:53.093Z,15.55
2023-01-06T12:50:36.187Z,16.18
2023-01-06T12:53:20.486Z,16.73
2023-01-06T12:56:20.022Z,16.82
2023-01-06T12:58:57.530Z,16.72
2023-01-06T13:01:31.697Z,16.91
2023-01-06T13:04:45.197Z,16.89
2023-01-06T13:07:27.664Z,16.69
2023-01-06T13:10:11.263Z,16.37
2023-01-06T13:12:54.491Z,15.86
2023-01-06T13:15:29.153Z,15.67
2023-01-06T13:18:12.188Z,15.70
2023-01-06T13:20:45.838Z,15.75
2023-01-06T13:23:41.703Z,15.71
2023-01-06T13:26:55.400Z,15.81
2023-01-06T13:29:42.450Z,16.77
2023-01-06T13:32:40.496Z,17.86
2023-01-06T13:35:32.863Z,18.84
2023-01-06T13:38:39.578Z,18.87
2023-01-06T13:41:16.617Z,18.68
2023-01-06T13:43:48.797Z,18.61
2023-01-06T13:46:23.094Z,18.66
2023-01-06T13:48:58.685Z,18.39
2023-01-06T13:51:32.931Z,17.72
2023-01-06T13:54:03.057Z,17.44
2023-01-06T13:56:34.138Z,17.06
2023-01-06T13:59:25.390Z,16.54
2023-01-06T14:01:59.649Z,16.27
2023-01-06T14:04:51.069Z,16.58
2023-01-06T14:07:37.718Z,17.21
2023-01-06T14:10:27.343Z,18.22
2023-01-06T14:12:57.128Z,19.48
2023-01-06T14:15:32.098Z,20.58
2023-01-06T14:18:02.744Z,22.14
2023-01-06T14:20:36.346Z,22.11
2023-01-06T14:23:18.499Z,22.46
2023-01-06T14:25:52.647Z,22.97
2023-01-06T14:28:30.568Z,23.53
2023-01-06T14:31:41.709Z,24.05
2023-01-06T14:34:17.510Z,24.63
2023-01-06T14:36:51.908Z,24.64
2023-01-06T14:39:27.773Z,24.16
2023-01-06T14:42:03.682Z,24.09
2023-01-06T14:44:44.597Z,23.99
2023-01-06T14:47:21.956Z,23.76
2023-01-06T14:49:57.303Z,23.35
2023-01-06T14:52:34.652Z,22.72
2023-01-06T14:55:09.685Z,21.86
2023-01-06T14:57:40.373Z,19.88
2023-01-06T15:00:17.984Z,17.45
2023-01-06T15:02:50.018Z,15.37
2023-01-06T15:05:23.062Z,13.83
2023-01-06T15:08:08.402Z,12.79
2023-01-06T15:10:41.041Z,11.95
2023-01-06T15:13:23.310Z,11.34
2023-01-06T15:15:55.587Z,10.80
2023-01-06T15:18:24.911Z,10.38
2023-01-06T15:20:56.644Z,10.05
2023-01-06T15:23:27.659Z,9.81
2023-01-06T15:25:57.730Z,9.65
2023-01-06T15:28:28.722Z,9.43
2023-01-06T15:31:00.138Z,9.20
2023-01-06T15:33:39.827Z,9.03
2023-01-06T15:36:11.341Z,8.84
2023-01-06T15:38:43.391Z,8.76
2023-01-06T15:41:32.685Z,8.47
2023-01-06T15:44:21.081Z,8.21
2023-01-06T15:46:51.123Z,8.06
2023-01-06T15:49:29.336Z,7.86
2023-01-06T15:52:02.961Z,7.61
2023-01-06T15:54:36.707Z,7.42
2023-01-06T15:57:17.446Z,7.23
2023-01-06T15:59:57.897Z,7.10
2023-01-06T16:02:33.359Z,7.02
2023-01-06T16:05:03.218Z,6.88
2023-01-06T16:07:40.409Z,6.76
2023-01-06T16:10:38.417Z,6.39
2023-01-06T16:13:30.051Z,6.20
2023-01-06T16:16:09.960Z,6.18
2023-01-06T16:18:39.904Z,6.00
2023-01-06T16:21:18.784Z,5.99
2023-01-06T16:23:52.286Z,5.94
2023-01-06T16:26:29.414Z,5.88
2023-01-06T16:29:02.861Z,5.82
2023-01-06T16:31:36.761Z,5.67
2023-01-06T16:34:26.850Z,5.57
2023-01-06T16:36:58.629Z,5.54
2023-01-06T16:39:29.217Z,5.54
2023-01-06T16:42:41.216Z,5.46
2023-01-06T16:45:23.344Z,5.47
2023-01-06T16:47:54.992Z,5.40
2023-01-06T16:50:39.806Z,5.33
2023-01-06T16:53:18.312Z,5.29
2023-01-06T16:55:53.084Z,5.05
2023-01-06T16:58:26.190Z,4.99
2023-01-06T17:00:58.337Z,5.06
2023-01-06T17:03:32.252Z,5.01
2023-01-06T17:06:01.523Z,5.28
2023-01-06T17:08:34.043Z,5.20
2023-01-06T17:11:13.307Z,5.22
2023-01-06T17:13:48.342Z,5.36
2023-01-06T17:16:21.992Z,5.37
2023-01-06T17:18:56.294Z,5.23
2023-01-06T17:21:30.782Z,5.06
2023-01-06T17:24:10.925Z,5.04
2023-01-06T17:26:40.979Z,5.02
2023-01-06T17:29:18.278Z,4.93
2023-01-06T17:31:50.329Z,4.94
2023-01-06T17:34:24.609Z,4.88
2023-01-06T17:36:57.421Z,4.73
2023-01-06T17:39:29.936Z,4.63
2023-01-06T17:42:04.999Z,4.50
2023-01-06T17:44:41.059Z,4.33
2023-01-06T17:47:27.741Z,4.24
2023-01-06T17:49:59.249Z,4.34
2023-01-06T17:52:33.339Z,4.39
2023-01-06T17:55:42.097Z,4.31
2023-01-06T17:58:15.689Z,4.03
2023-01-06T18:00:47.678Z,4.01
2023-01-06T18:03:20.944Z,4.02
2023-01-06T18:06:26.345Z,4.03
2023-01-06T18:09:05.169Z,3.97
2023-01-06T18:11:38.843Z,4.00
2023-01-06T18:14:25.957Z,3.96
2023-01-06T18:16:59.197Z,4.12
2023-01-06T18:19:34.514Z,4.07
2023-01-06T18:22:13.198Z,4.05
2023-01-06T18:24:43.056Z,3.89
2023-01-06T18:27:23.104Z,3.74
2023-01-06T18:29:53.520Z,3.66
2023-01-06T18:32:31.855Z,3.71
2023-01-06T18:35:03.268Z,3.55
2023-01-06T18:37:36.051Z,3.64
2023-01-06T18:40:11.695Z,3.57
2023-01-06T18:42:44.645Z,3.48
2023-01-06T18:45:23.365Z,3.27
2023-01-06T18:48:01.612Z,3.12
2023-01-06T18:50:34.826Z,2.99
2023-01-06T18:53:12.011Z,2.83
2023-01-06T18:55:45.577Z,2.66
2023-01-06T18:58:31.198Z,2.80
2023-01-06T19:01:03.589Z,2.73
2023-01-06T19:03:42.861Z,2.82
2023-01-06T19:06:43.874Z,2.82
2023-01-06T19:09:22.603Z,3.13
2023-01-06T19:12:03.192Z,3.15
2023-01-06T19:14:37.615Z,2.98
2023-01-06T19:17:22.397Z,2.90
2023-01-06T19:19:53.666Z,2.76
2023-01-06T19:22:28.139Z,2.85
2023-01-06T19:25:03.391Z,2.83
2023-01-06T19:27:40.907Z,2.89
2023-01-06T19:30:45.255Z,3.05
2023-01-06T19:33:28.318Z,2.97
2023-01-06T19:36:28.410Z,2.81
2023-01-06T19:38:58.464Z,2.71
2023-01-06T19:41:31.236Z,2.69
2023-01-06T19:44:10.913Z,2.91
2023-01-06T19:46:43.335Z,2.80
2023-01-06T19:49:17.862Z,2.78
2023-01-06T19:51:51.485Z,2.61
2023-01-06T19:54:27.959Z,2.43
2023-01-06T19:56:57.482Z,2.29
2023-01-06T19:59:31.547Z,2.30
2023-01-06T20:02:16.620Z,2.40
2023-01-06T20:04:45.720Z,2.33
2023-01-06T20:07:16.882Z,2.19
2023-01-06T20:09:46.931Z,2.15
2023-01-06T20:12:16.202Z,2.03
2023-01-06T20:14:45.736Z,2.01
2023-01-06T20:17:17.327Z,2.04
2023-01-06T20:19:46.451Z,2.02
2023-01-06T20:22:19.050Z,2.10
2023-01-06T20:24:48.394Z,2.19
2023-01-06T20:27:18.335Z,2.22
2023-01-06T20:29:47.778Z,2.14
2023-01-06T20:32:20.376Z,2.24
2023-01-06T20:34:49.620Z,2.17
2023-01-06T20:37:21.423Z,2.27
2023-01-06T20:39:51.410Z,2.23
2023-01-06T20:42:23.739Z,2.11
2023-01-06T20:44:53.423Z,2.14
2023-01-06T20:47:23.446Z,2.15
2023-01-06T20:49:53.479Z,2.01
2023-01-06T20:52:24.477Z,1.82
2023-01-06T20:54:54.196Z,1.69
2023-01-06T20:57:23.620Z,1.79
2023-01-06T20:59:53.515Z,1.82
2023-01-06T21:02:23.016Z,1.77
2023-01-06T21:04:52.345Z,1.79
2023-01-06T21:07:23.457Z,1.77
2023-01-06T21:09:52.791Z,1.71
2023-01-06T21:12:22.429Z,1.59
2023-01-06T21:14:51.806Z,1.66
2023-01-06T21:17:21.413Z,1.64
2023-01-06T21:19:50.774Z,1.57
2023-01-06T21:22:20.056Z,1.66
2023-01-06T21:24:53.835Z,1.74
2023-01-06T21:27:25.567Z,1.81
2023-01-06T21:29:58.981Z,1.68
2023-01-06T21:32:30.769Z,1.66
2023-01-06T21:35:04.246Z,1.58
2023-01-06T21:37:36.963Z,1.48
2023-01-06T21:40:10.514Z,1.36
2023-01-06T21:43:00.668Z,1.46
2023-01-06T21:45:33.367Z,1.50
2023-01-06T21:48:05.553Z,1.41
2023-01-06T21:50:41.320Z,1.39
2023-01-06T21:53:13.028Z,1.55
2023-01-06T21:55:46.211Z,1.58
2023-01-06T21:58:17.713Z,1.60
2023-01-06T22:00:47.201Z,1.28
2023-01-06T22:03:16.549Z,1.15
2023-01-06T22:05:46.513Z,1.12
2023-01-06T22:08:15.800Z,1.46
2023-01-06T22:10:46.946Z,1.31
2023-01-06T22:13:22.309Z,1.22
2023-01-06T22:15:53.966Z,1.00
2023-01-06T22:18:23.508Z,0.94
2023-01-06T22:20:53.487Z,0.81
2023-01-06T22:23:23.191Z,0.72
2023-01-06T22:25:54.152Z,0.75
2023-01-06T22:28:23.891Z,0.91
2023-01-06T22:30:54.821Z,1.13
2023-01-06T22:33:25.198Z,1.14
2023-01-06T22:35:58.672Z,1.05
2023-01-06T22:38:28.541Z,1.03
2023-01-06T22:40:59.586Z,1.10
2023-01-06T22:43:29.092Z,1.02
2023-01-06T22:45:58.575Z,0.93
2023-01-06T22:48:28.302Z,0.93
2023-01-06T22:50:58.534Z,0.83
2023-01-06T22:53:29.170Z,0.95
2023-01-06T22:56:01.673Z,0.82
2023-01-06T22:58:32.070Z,0.87
2023-01-06T23:01:01.318Z,0.76
2023-01-06T23:03:31.127Z,0.67
2023-01-06T23:06:02.873Z,0.54
2023-01-06T23:08:35.084Z,0.47
2023-01-06T23:11:08.631Z,0.40
2023-01-06T23:13:39.258Z,0.31
2023-01-06T23:16:11.725Z,0.34
2023-01-06T23:18:44.972Z,0.33
2023-01-06T23:21:16.981Z,0.33
2023-01-06T23:23:47.345Z,0.29
2023-01-06T23:26:21.202Z,0.31
2023-01-06T23:28:51.421Z,0.34
2023-01-06T23:31:23.515Z,0.42
2023-01-06T23:33:55.874Z,0.56
2023-01-06T23:36:28.103Z,0.47
2023-01-06T23:38:58.111Z,0.42
2023-01-06T23:41:32.218Z,0.41
2023-01-06T23:44:02.313Z,0.62
2023-01-06T23:46:33.687Z,0.52
2023-01-06T23:49:02.919Z,0.51
2023-01-06T23:51:32.597Z,0.45
2023-01-06T23:54:03.775Z,0.38
2023-01-06T23:56:37.375Z,0.30
2023-01-06T23:59:09.089Z,0.34
